createdAt,value
2022-11-04T00:01:17.078Z,22.58
2022-11-04T00:03:44.072Z,26.45
2022-11-04T00:06:11.120Z,26.73
2022-11-04T00:08:38.084Z,28.98
2022-11-04T00:11:24.197Z,25.35
2022-11-04T00:13:51.549Z,28.73
2022-11-04T00:16:37.152Z,27.75
2022-11-04T00:19:04.126Z,26.33
2022-11-04T00:21:49.676Z,30.13
2022-11-04T00:24:35.029Z,27.27
2022-11-04T00:27:20.647Z,28.42
2022-11-04T00:29:47.589Z,23.20
2022-11-04T00:32:33.061Z,24.88
2022-11-04T00:35:00.083Z,25.95
2022-11-04T00:37:27.071Z,23.92
2022-11-04T00:39:54.003Z,28.10
2022-11-04T00:42:20.990Z,24.58
2022-11-04T00:44:48.036Z,23.40
2022-11-04T00:47:15.016Z,25.73
2022-11-04T00:49:41.911Z,20.13
2022-11-04T00:52:08.810Z,23.05
2022-11-04T00:54:35.810Z,25.45
2022-11-04T00:57:02.765Z,25.05
2022-11-04T00:59:29.742Z,21.90
2022-11-04T01:01:57.176Z,24.80
2022-11-04T01:04:24.246Z,25.88
2022-11-04T01:06:51.199Z,23.92
2022-11-04T01:09:18.654Z,28.38
2022-11-04T01:11:45.765Z,22.00
2022-11-04T01:14:13.672Z,26.80
2022-11-04T01:16:41.003Z,25.40
2022-11-04T01:19:08.232Z,24.48
2022-11-04T01:21:35.254Z,23.10
2022-11-04T01:24:02.680Z,22.55
2022-11-04T01:26:30.776Z,22.63
2022-11-04T01:29:00.153Z,27.27
2022-11-04T01:31:30.546Z,27.30
2022-11-04T01:33:59.021Z,21.88
2022-11-04T01:36:28.377Z,22.83
2022-11-04T01:38:57.125Z,23.23
2022-11-04T01:53:15.135Z,24.58
2022-11-04T01:55:50.822Z,20.08
2022-11-04T01:58:21.975Z,25.83
2022-11-04T02:00:49.437Z,23.80
2022-11-04T02:03:19.939Z,25.98
2022-11-04T02:05:48.302Z,20.60
2022-11-04T02:08:19.320Z,25.80
2022-11-04T02:10:57.996Z,19.33
2022-11-04T02:13:26.640Z,16.45
2022-11-04T02:16:14.966Z,20.77
2022-11-04T02:18:59.689Z,23.58
2022-11-04T02:21:54.462Z,20.45
2022-11-04T02:24:42.234Z,18.58
2022-11-04T02:27:45.340Z,21.08
2022-11-04T02:30:22.461Z,21.15
2022-11-04T02:33:23.209Z,20.33
2022-11-04T02:36:09.505Z,20.75
2022-11-04T02:39:05.209Z,18.77
2022-11-04T02:41:44.491Z,21.25
2022-11-04T02:44:59.741Z,23.60
2022-11-04T02:47:31.755Z,24.65
2022-11-04T02:50:08.691Z,23.20
2022-11-04T02:52:38.499Z,21.25
2022-11-04T02:55:17.480Z,19.23
2022-11-04T02:57:48.559Z,18.40
2022-11-04T03:00:16.091Z,24.33
2022-11-04T03:03:04.107Z,20.75
2022-11-04T03:05:39.265Z,19.40
2022-11-04T03:08:46.509Z,21.08
2022-11-04T03:11:27.717Z,17.98
2022-11-04T03:14:34.774Z,20.17
2022-11-04T03:17:09.123Z,18.08
2022-11-04T03:19:41.976Z,23.15
2022-11-04T03:22:18.954Z,21.70
2022-11-04T03:24:48.669Z,22.05
2022-11-04T03:27:50.761Z,19.67
2022-11-04T03:30:22.174Z,18.98
2022-11-04T03:33:20.506Z,21.88
2022-11-04T03:35:47.656Z,20.42
2022-11-04T03:38:14.891Z,21.67
2022-11-04T03:40:41.969Z,17.63
2022-11-04T03:43:19.484Z,20.40
2022-11-04T03:45:47.090Z,22.23
2022-11-04T03:48:14.278Z,21.10
2022-11-04T03:50:44.628Z,17.58
2022-11-04T03:53:14.388Z,21.33
2022-11-04T03:56:08.351Z,21.27
2022-11-04T03:59:28.051Z,20.38
2022-11-04T04:02:22.750Z,22.08
2022-11-04T04:05:33.317Z,20.38
2022-11-04T04:08:18.349Z,21.10
2022-11-04T04:11:36.422Z,18.00
2022-11-04T04:14:39.218Z,21.05
2022-11-04T04:17:36.811Z,22.80
2022-11-04T04:20:22.917Z,20.65
2022-11-04T04:23:01.489Z,21.17
2022-11-04T04:25:51.011Z,20.77
2022-11-04T04:28:19.398Z,23.02
2022-11-04T04:30:47.070Z,21.98
2022-11-04T04:33:18.748Z,19.40
2022-11-04T04:35:57.021Z,22.55
2022-11-04T04:38:49.775Z,24.52
2022-11-04T04:41:41.146Z,20.03
2022-11-04T04:44:45.523Z,23.73
2022-11-04T04:47:20.330Z,19.88
2022-11-04T04:49:59.888Z,22.63
2022-11-04T04:52:34.620Z,18.15
2022-11-04T04:55:01.701Z,21.50
2022-11-04T04:57:28.698Z,24.60
2022-11-04T04:59:55.731Z,24.15
2022-11-04T05:02:22.986Z,20.30
2022-11-04T05:04:50.069Z,20.95
2022-11-04T05:07:17.078Z,20.80
2022-11-04T05:09:44.032Z,23.40
2022-11-04T05:12:11.104Z,22.10
2022-11-04T05:14:38.149Z,19.90
2022-11-04T05:17:05.276Z,25.27
2022-11-04T05:19:32.276Z,21.15
2022-11-04T05:21:59.280Z,21.83
2022-11-04T05:24:26.191Z,23.55
2022-11-04T05:26:53.353Z,21.95
2022-11-04T05:29:20.467Z,20.80
2022-11-04T05:31:47.775Z,20.33
2022-11-04T05:34:14.765Z,25.10
2022-11-04T05:36:41.954Z,22.48
2022-11-04T05:39:12.756Z,21.10
2022-11-04T05:41:39.775Z,27.05
2022-11-04T05:44:09.497Z,20.13
2022-11-04T05:46:36.619Z,21.00
2022-11-04T05:49:03.978Z,23.25
2022-11-04T05:51:31.916Z,23.98
2022-11-04T05:53:58.981Z,22.08
2022-11-04T05:56:25.988Z,19.42
2022-11-04T05:58:53.017Z,24.85
2022-11-04T06:01:28.163Z,24.73
2022-11-04T06:03:57.081Z,23.58
2022-11-04T06:06:26.531Z,19.60
2022-11-04T06:08:54.611Z,21.33
2022-11-04T06:11:23.119Z,21.02
2022-11-04T06:13:52.446Z,26.80
2022-11-04T06:16:19.405Z,23.08
2022-11-04T06:18:46.501Z,21.58
2022-11-04T06:21:14.396Z,24.02
2022-11-04T06:23:42.863Z,21.60
2022-11-04T06:26:11.776Z,17.92
2022-11-04T06:28:39.229Z,21.52
2022-11-04T06:31:09.327Z,25.67
2022-11-04T06:33:37.188Z,20.80
2022-11-04T06:36:07.714Z,20.35
2022-11-04T06:38:40.030Z,19.92
2022-11-04T06:41:12.505Z,24.63
2022-11-04T06:43:39.646Z,25.73
2022-11-04T06:46:27.930Z,22.58
2022-11-04T06:48:57.252Z,20.60
2022-11-04T06:51:25.943Z,19.50
2022-11-04T06:53:53.249Z,19.95
2022-11-04T06:56:20.316Z,23.23
2022-11-04T06:58:55.141Z,19.73
2022-11-04T07:01:27.006Z,20.08
2022-11-04T07:03:56.997Z,23.88
2022-11-04T07:06:24.566Z,20.50
2022-11-04T07:08:53.542Z,23.98
2022-11-04T07:11:22.814Z,22.45
2022-11-04T07:13:50.088Z,22.65
2022-11-04T07:16:18.363Z,21.35
2022-11-04T07:18:45.756Z,22.42
2022-11-04T07:34:39.176Z,19.85
2022-11-04T07:37:06.306Z,20.10
2022-11-04T07:39:33.374Z,18.38
2022-11-04T07:42:00.844Z,20.15
2022-11-04T07:44:27.877Z,20.13
2022-11-04T07:46:54.894Z,17.08
2022-11-04T07:49:21.992Z,22.95
2022-11-04T07:51:49.071Z,18.42
2022-11-04T07:54:16.054Z,19.63
2022-11-04T07:56:43.029Z,20.40
2022-11-04T07:59:11.135Z,17.73
2022-11-04T08:01:38.122Z,20.83
2022-11-04T08:04:07.085Z,17.17
2022-11-04T08:06:34.117Z,19.00
2022-11-04T08:09:01.155Z,22.08
2022-11-04T08:11:28.537Z,18.60
2022-11-04T08:13:56.714Z,17.33
2022-11-04T08:16:30.008Z,20.55
2022-11-04T08:19:01.762Z,24.40
2022-11-04T08:21:31.004Z,20.30
2022-11-04T08:23:58.188Z,26.85
2022-11-04T08:26:25.440Z,19.25
2022-11-04T08:28:53.083Z,17.98
2022-11-04T08:31:28.564Z,22.45
2022-11-04T08:33:57.486Z,18.33
2022-11-04T08:36:36.948Z,17.23
2022-11-04T08:39:10.600Z,20.17
2022-11-04T08:41:43.143Z,19.60
2022-11-04T08:44:14.236Z,18.75
2022-11-04T08:46:44.960Z,17.08
2022-11-04T08:49:16.298Z,19.02
2022-11-04T08:51:49.534Z,16.63
2022-11-04T08:54:16.956Z,18.63
2022-11-04T08:56:44.117Z,20.67
2022-11-04T08:59:11.591Z,19.60
2022-11-04T09:01:39.102Z,20.38
2022-11-04T09:04:06.772Z,20.90
2022-11-04T09:06:42.788Z,19.58
2022-11-04T09:09:17.185Z,20.98
2022-11-04T09:11:45.668Z,20.25
2022-11-04T09:14:13.185Z,19.95
2022-11-04T09:16:42.272Z,20.38
2022-11-04T09:19:12.283Z,22.38
2022-11-04T09:21:39.255Z,19.50
2022-11-04T09:24:07.825Z,22.92
2022-11-04T09:26:35.488Z,19.92
2022-11-04T09:29:02.620Z,20.23
2022-11-04T09:31:31.046Z,19.52
2022-11-04T09:33:58.511Z,20.88
2022-11-04T09:36:26.268Z,22.48
2022-11-04T09:38:54.190Z,19.67
2022-11-04T09:41:39.002Z,19.73
2022-11-04T09:44:22.747Z,22.77
2022-11-04T09:46:53.708Z,24.33
2022-11-04T09:49:21.651Z,22.15
2022-11-04T09:51:55.199Z,19.65
2022-11-04T09:54:41.847Z,20.23
2022-11-04T09:57:19.871Z,20.08
2022-11-04T09:59:48.464Z,17.95
2022-11-04T10:02:40.590Z,19.42
2022-11-04T10:05:34.327Z,19.45
2022-11-04T10:11:14.458Z,20.33
2022-11-04T10:14:13.295Z,18.63
2022-11-04T10:16:58.304Z,17.25
2022-11-04T10:19:47.968Z,21.95
2022-11-04T10:22:35.129Z,21.20
2022-11-04T10:25:16.190Z,18.27
2022-11-04T10:27:47.430Z,21.45
2022-11-04T10:30:20.996Z,16.63
2022-11-04T10:33:14.110Z,21.15
2022-11-04T10:36:13.207Z,18.88
2022-11-04T10:38:47.236Z,19.23
2022-11-04T10:41:16.851Z,21.88
2022-11-04T10:43:44.018Z,20.60
2022-11-04T10:46:38.872Z,18.77
2022-11-04T10:50:27.908Z,18.15
2022-11-04T10:53:10.496Z,19.35
2022-11-04T10:56:17.720Z,19.88
2022-11-04T10:58:48.683Z,21.08
2022-11-04T11:01:31.623Z,17.73
2022-11-04T11:03:59.467Z,20.77
2022-11-04T11:06:35.205Z,21.70
2022-11-04T11:09:28.541Z,20.45
2022-11-04T11:12:01.866Z,17.08
2022-11-04T11:14:28.794Z,19.60
2022-11-04T11:16:58.524Z,23.23
2022-11-04T11:19:26.648Z,19.60
2022-11-04T11:21:57.767Z,18.85
2022-11-04T11:24:30.711Z,21.30
2022-11-04T11:27:03.957Z,22.58
2022-11-04T11:29:40.516Z,22.83
2022-11-04T11:32:33.401Z,21.55
2022-11-04T11:35:03.500Z,24.77
2022-11-04T11:40:00.718Z,19.70
2022-11-04T11:42:30.437Z,24.02
2022-11-04T11:45:00.076Z,20.33
2022-11-04T11:47:30.023Z,22.45
2022-11-04T11:50:18.783Z,20.77
2022-11-04T11:52:48.106Z,22.42
2022-11-04T11:55:35.967Z,24.98
2022-11-04T12:01:46.880Z,28.42
2022-11-04T12:10:50.537Z,24.02
2022-11-04T12:13:37.168Z,20.20
2022-11-04T12:16:19.329Z,19.38
2022-11-04T12:19:37.949Z,25.08
2022-11-04T12:22:29.373Z,19.73
2022-11-04T12:25:14.148Z,18.92
2022-11-04T12:28:00.572Z,21.15
2022-11-04T12:30:37.234Z,19.48
2022-11-04T12:33:29.615Z,24.25
2022-11-04T12:36:30.584Z,19.40
2022-11-04T12:39:21.424Z,22.52
2022-11-04T12:42:21.923Z,20.45
2022-11-04T12:45:25.680Z,22.63
2022-11-04T12:48:04.430Z,22.33
2022-11-04T12:51:06.532Z,24.95
2022-11-04T12:53:39.311Z,22.38
2022-11-04T12:56:14.533Z,23.23
2022-11-04T12:59:04.783Z,24.10
2022-11-04T13:01:53.437Z,25.23
2022-11-04T13:04:23.572Z,21.98
2022-11-04T13:07:01.174Z,24.40
2022-11-04T13:09:59.615Z,25.23
2022-11-04T13:12:40.221Z,22.35
2022-11-04T13:15:20.868Z,27.48
2022-11-04T13:17:54.791Z,18.50
2022-11-04T13:20:33.553Z,21.23
2022-11-04T13:23:08.847Z,21.85
2022-11-04T13:25:43.487Z,22.35
2022-11-04T13:28:16.646Z,20.70
2022-11-04T13:33:57.992Z,27.63
2022-11-04T13:36:57.753Z,22.33
2022-11-04T13:39:42.516Z,23.38
2022-11-04T13:42:42.008Z,21.27
2022-11-04T13:45:17.492Z,22.80
2022-11-04T13:47:57.525Z,21.20
2022-11-04T13:50:41.652Z,22.17
2022-11-04T13:53:11.792Z,23.30
2022-11-04T13:55:51.066Z,23.00
2022-11-04T13:58:26.111Z,19.80
2022-11-04T14:01:13.800Z,20.95
2022-11-04T14:04:11.195Z,22.45
2022-11-04T14:06:58.936Z,21.58
2022-11-04T14:09:44.248Z,21.45
2022-11-04T14:12:14.236Z,28.45
2022-11-04T14:15:01.623Z,24.58
2022-11-04T14:17:34.799Z,24.73
2022-11-04T14:20:22.010Z,28.63
2022-11-04T14:22:56.576Z,20.63
2022-11-04T14:25:44.161Z,23.58
2022-11-04T14:28:11.142Z,23.77
2022-11-04T14:30:57.472Z,21.58
2022-11-04T14:33:56.350Z,24.50
2022-11-04T14:36:34.845Z,20.95
2022-11-04T14:39:22.383Z,21.50
2022-11-04T14:41:49.882Z,21.42
2022-11-04T14:44:21.503Z,22.80
2022-11-04T14:46:55.513Z,21.60
2022-11-04T14:49:31.509Z,26.73
2022-11-04T14:51:59.054Z,22.80
2022-11-04T14:54:34.112Z,23.15
2022-11-04T14:57:19.683Z,35.05
2022-11-04T14:59:47.515Z,22.92
2022-11-04T15:02:28.718Z,20.27
2022-11-04T15:05:01.912Z,25.80
2022-11-04T15:10:36.055Z,22.60
2022-11-04T15:13:03.212Z,36.42
2022-11-04T15:15:31.599Z,28.00
2022-11-04T15:18:28.542Z,21.95
2022-11-04T15:21:00.278Z,56.45
2022-11-04T15:23:31.590Z,23.40
2022-11-04T15:26:03.399Z,23.00
2022-11-04T15:28:38.050Z,27.80
2022-11-04T15:31:11.237Z,27.48
2022-11-04T15:33:46.643Z,27.17
2022-11-04T15:36:32.676Z,25.75
2022-11-04T15:39:14.263Z,28.23
2022-11-04T15:42:03.803Z,27.40
2022-11-04T15:44:34.634Z,27.55
2022-11-04T15:47:19.837Z,28.35
2022-11-04T15:49:49.865Z,29.15
2022-11-04T15:52:29.252Z,29.17
2022-11-04T15:54:59.829Z,25.60
2022-11-04T15:57:35.731Z,24.70
2022-11-04T16:00:25.943Z,27.90
2022-11-04T16:03:01.196Z,47.38
2022-11-04T16:05:33.765Z,51.42
2022-11-04T16:08:36.331Z,52.42
2022-11-04T16:11:18.807Z,36.80
2022-11-04T16:13:46.920Z,62.23
2022-11-04T16:16:27.539Z,39.30
2022-11-04T16:19:00.474Z,54.25
2022-11-04T16:21:36.483Z,56.58
2022-11-04T16:24:24.450Z,35.60
2022-11-04T16:27:01.764Z,53.45
2022-11-04T16:29:36.734Z,53.45
2022-11-04T16:32:25.986Z,43.58
2022-11-04T16:35:01.834Z,26.38
2022-11-04T16:37:32.469Z,30.75
2022-11-04T16:40:05.338Z,35.30
2022-11-04T16:42:37.713Z,26.80
2022-11-04T16:45:11.065Z,27.10
2022-11-04T16:47:42.281Z,30.95
2022-11-04T16:50:18.849Z,26.20
2022-11-04T16:52:48.180Z,25.25
2022-11-04T16:55:19.681Z,26.77
2022-11-04T16:57:53.518Z,26.08
2022-11-04T17:00:25.632Z,23.55
2022-11-04T17:02:55.062Z,22.53
2022-11-04T17:05:24.063Z,24.27
2022-11-04T17:07:54.479Z,24.25
2022-11-04T17:10:29.316Z,28.63
2022-11-04T17:12:57.798Z,23.92
2022-11-04T17:15:31.820Z,27.05
2022-11-04T17:18:02.255Z,23.17
2022-11-04T17:20:33.861Z,23.45
2022-11-04T17:23:03.583Z,22.05
2022-11-04T17:25:35.264Z,24.55
2022-11-04T17:28:05.720Z,20.50
2022-11-04T17:30:35.633Z,20.98
2022-11-04T17:33:11.134Z,20.20
2022-11-04T17:35:42.143Z,20.35
2022-11-04T17:38:15.240Z,20.70
2022-11-04T17:41:01.789Z,21.15
2022-11-04T17:43:48.844Z,19.52
2022-11-04T17:46:39.665Z,19.73
2022-11-04T17:49:21.542Z,22.02
2022-11-04T17:51:56.032Z,23.58
2022-11-04T17:54:28.372Z,23.92
2022-11-04T17:56:57.853Z,21.80
2022-11-04T17:59:25.310Z,21.02
2022-11-04T18:01:53.372Z,23.25
2022-11-04T18:04:24.113Z,19.30
2022-11-04T18:06:56.065Z,19.45
2022-11-04T18:09:29.132Z,20.08
2022-11-04T18:12:15.408Z,21.42
2022-11-04T18:27:01.662Z,22.17
2022-11-04T18:29:28.890Z,20.25
2022-11-04T18:32:07.240Z,19.92
2022-11-04T18:34:45.075Z,21.25
2022-11-04T18:37:15.486Z,30.85
2022-11-04T18:39:44.036Z,22.75
2022-11-04T18:42:12.286Z,25.58
2022-11-04T18:44:42.300Z,17.42
2022-11-04T18:47:11.756Z,20.73
2022-11-04T18:49:39.450Z,19.90
2022-11-04T18:52:07.053Z,19.92
2022-11-04T18:54:36.674Z,21.38
2022-11-04T18:57:05.464Z,19.50
2022-11-04T18:59:35.000Z,21.80
2022-11-04T19:02:04.148Z,22.77
2022-11-04T19:04:32.043Z,21.15
2022-11-04T19:07:00.758Z,23.08
2022-11-04T19:09:47.666Z,21.42
2022-11-04T19:12:35.470Z,23.35
2022-11-04T19:15:05.544Z,21.67
2022-11-04T19:17:36.784Z,21.63
2022-11-04T19:20:11.656Z,20.00
2022-11-04T19:22:43.724Z,24.77
2022-11-04T19:25:12.535Z,19.98
2022-11-04T19:28:26.841Z,21.10
2022-11-04T19:30:39.704Z,20.85
2022-11-04T19:33:08.283Z,19.95
2022-11-04T19:35:47.132Z,21.35
2022-11-04T19:38:14.495Z,17.90
2022-11-04T19:40:44.779Z,22.50
2022-11-04T19:43:15.733Z,19.30
2022-11-04T19:45:54.540Z,19.83
2022-11-04T19:48:21.861Z,23.13
2022-11-04T19:50:50.055Z,19.75
2022-11-04T19:53:18.552Z,20.50
2022-11-04T19:55:53.057Z,21.42
2022-11-04T19:58:23.762Z,21.42
2022-11-04T20:00:51.219Z,20.40
2022-11-04T20:03:21.074Z,20.08
2022-11-04T20:05:48.545Z,21.90
2022-11-04T20:08:17.247Z,21.88
2022-11-04T20:10:45.689Z,22.67
2022-11-04T20:13:38.177Z,23.55
2022-11-04T20:16:12.845Z,18.80
2022-11-04T20:18:41.455Z,18.42
2022-11-04T20:21:10.401Z,18.25
2022-11-04T20:23:39.601Z,20.52
2022-11-04T20:26:20.032Z,18.77
2022-11-04T20:28:49.319Z,20.55
2022-11-04T20:31:25.345Z,21.02
2022-11-04T20:33:57.727Z,20.30
2022-11-04T20:36:28.931Z,19.25
2022-11-04T20:39:16.791Z,22.58
2022-11-04T20:41:45.202Z,21.02
2022-11-04T20:44:18.150Z,19.13
2022-11-04T20:46:46.510Z,23.05
2022-11-04T20:49:14.316Z,20.35
2022-11-04T20:51:50.064Z,19.88
2022-11-04T20:54:21.895Z,22.58
2022-11-04T20:56:51.149Z,22.30
2022-11-04T20:59:19.719Z,23.38
2022-11-04T21:01:50.822Z,20.92
2022-11-04T21:04:21.597Z,26.52
2022-11-04T21:06:51.942Z,25.05
2022-11-04T21:09:23.317Z,22.17
2022-11-04T21:11:52.258Z,23.33
2022-11-04T21:14:21.034Z,21.52
2022-11-04T21:16:49.619Z,21.67
2022-11-04T21:19:18.000Z,22.25
2022-11-04T21:21:47.130Z,24.60
2022-11-04T21:24:16.560Z,19.42
2022-11-04T21:26:46.053Z,23.45
2022-11-04T21:29:18.285Z,22.48
2022-11-04T21:31:48.334Z,23.50
2022-11-04T21:34:16.078Z,21.38
2022-11-04T21:36:43.716Z,21.48
2022-11-04T21:39:13.196Z,21.10
2022-11-04T21:41:41.632Z,22.48
2022-11-04T21:44:13.592Z,22.33
2022-11-04T21:46:46.114Z,26.33
2022-11-04T21:49:13.836Z,20.10
2022-11-04T21:51:42.164Z,23.35
2022-11-04T21:54:11.115Z,21.85
2022-11-04T21:56:39.791Z,22.70
2022-11-04T21:59:07.634Z,20.77
2022-11-04T22:01:37.080Z,21.92
2022-11-04T22:04:05.942Z,24.88
2022-11-04T22:06:35.693Z,25.35
2022-11-04T22:09:08.222Z,19.35
2022-11-04T22:11:37.445Z,23.67
2022-11-04T22:14:09.092Z,25.13
2022-11-04T22:16:41.508Z,20.95
2022-11-04T22:19:13.756Z,68.45
2022-11-04T22:21:45.273Z,71.40
2022-11-04T22:24:16.314Z,42.95
2022-11-04T22:26:44.790Z,56.50
2022-11-04T22:29:12.098Z,104.13
2022-11-04T22:31:43.208Z,65.75
2022-11-04T22:34:11.046Z,53.70
2022-11-04T22:36:41.035Z,60.45
2022-11-04T22:39:16.505Z,37.17
2022-11-04T22:41:46.689Z,52.78
2022-11-04T22:44:14.564Z,52.97
2022-11-04T22:46:42.869Z,61.47
2022-11-04T22:49:11.104Z,70.35
2022-11-04T22:51:39.852Z,60.97
2022-11-04T22:54:09.567Z,36.13
2022-11-04T22:56:38.460Z,39.60
2022-11-04T22:59:06.304Z,40.97
2022-11-04T23:01:33.963Z,41.75
2022-11-04T23:04:02.407Z,40.63
2022-11-04T23:06:30.924Z,29.75
2022-11-04T23:09:00.676Z,28.85
2022-11-04T23:11:51.128Z,27.58
2022-11-04T23:14:40.716Z,26.10
2022-11-04T23:17:56.904Z,25.58
2022-11-04T23:20:28.045Z,27.27
2022-11-04T23:23:14.672Z,25.30
2022-11-04T23:25:44.319Z,26.00
2022-11-04T23:28:31.115Z,26.98
2022-11-04T23:30:59.656Z,25.92
2022-11-04T23:33:48.897Z,25.48
2022-11-04T23:36:34.851Z,30.35
2022-11-04T23:39:03.100Z,25.15
2022-11-04T23:41:49.067Z,30.17
2022-11-04T23:44:36.376Z,24.90
2022-11-04T23:47:23.261Z,26.52
2022-11-04T23:50:09.637Z,27.02
2022-11-04T23:52:55.315Z,28.48
2022-11-04T23:55:41.317Z,27.75
2022-11-04T23:58:28.740Z,26.55
